Huvudsida
METAR-TAF:

METAR-TAF

Flygplatser :

Aeraport Vitsebsk

Vitsebsk, Vitryssland

latitud: 55-10N, longitud: 030-13E, höjd: 176 m

Aktuellt väderrapport

Denna rapport gjordes för 5 timmar och 50 minuter sedan, klockan 16:00 UTC
Vind 14 kt från väst/sydväst i byarna ända upp till 19 kt
Temperatur 3°C
Fuktighet 87%
Tryck 1012 hPa
Sikt 10 km eller mer
Brutna moln på en höjd av 1500 ft

METAR: UMII 261600Z 24007G10MPS 9999 BKN015 03/01 Q1012 R23/710366 TEMPO 2000 RA BKN005

Tid: 00:50 (21:50 UTC)

Väderprognos

Denna rapport gjordes för 7 timmar och 44 minuter sedan, klockan 14:06 UTC
Prognos gäller från 26 kl. 15 UTC till 26 kl. 24 UTC
Vind 10 kt från väst/sydväst i byarna ända upp till 19 kt
Sikt: 2000 m
Brutna moln på en höjd av 500 ft
fuktdis
Temporärt
från 26 kl. 15 UTC till 26 kl. 21 UTC
Sikt: 0500 m
Brutna moln på en höjd av 300 ft
tung snö, regn

TAF: UMII 261406Z 2615/2624 25005G10MPS 2000 BR BKN005 TEMPO 2615/2621 0500 +SNRA BKN003

Aktuella väderrapporter och prognoser från 4000 flygplatser (METAR- och TAF-rapporter).

De tillgängliga stationerna syns som gula och röda prickar på kartan.

För musen över prickarna för att se namnen på stationerna.

Klicka sedan för att få väderrapporter och prognoser.

För att ändra kartan: Klicka på de gröna knapparna med ett svart kors på för att zooma in; den gröna knappen med ett streck på för att zooma ut; eller på de gröna pilarna för angränsande kartor.


METAR-TAF: